Time;durP1;ratioP1;P1;durP2;ratioP2;P2;SDS_P1;SDS_P2;PMS_P1;PMS_P2;Temp;Humidity;BMP_temperature;BMP_pressure;BME280_temperature;BME280_humidity;BME280_pressure;Samples;Min_cycle;Max_cycle;Signal;HPM_P1;HPM_P2
2021/03/12 00:00:24;;;;;;;27.48;17.60;;;3.70;99.90;;;;;;4955284;29;20035;-85
2021/03/12 00:02:50;;;;;;;29.17;17.55;;;3.80;99.90;;;;;;4951250;28;20118;-86
2021/03/12 00:05:16;;;;;;;29.65;17.85;;;3.80;99.90;;;;;;4936291;29;20142;-79
2021/03/12 00:07:42;;;;;;;27.10;17.83;;;3.50;99.90;;;;;;4954682;29;20030;-77
2021/03/12 00:10:09;;;;;;;26.13;16.92;;;3.30;99.90;;;;;;4968406;28;20121;-81
2021/03/12 00:12:35;;;;;;;28.02;17.45;;;3.50;99.90;;;;;;4962319;28;20438;-81
2021/03/12 00:15:01;;;;;;;23.38;17.20;;;3.60;99.90;;;;;;4965166;28;20027;-79
2021/03/12 00:17:27;;;;;;;30.58;19.00;;;3.60;99.90;;;;;;4966632;28;20022;-83
2021/03/12 00:19:53;;;;;;;25.75;16.77;;;3.40;99.90;;;;;;4955852;28;20043;-86
2021/03/12 00:22:19;;;;;;;25.05;16.80;;;3.20;99.90;;;;;;4953983;29;20370;-77
2021/03/12 00:24:45;;;;;;;27.33;17.20;;;3.40;99.90;;;;;;4953747;29;20027;-78
2021/03/12 00:27:11;;;;;;;30.77;19.95;;;3.50;99.90;;;;;;4952256;28;20416;-81
2021/03/12 00:29:37;;;;;;;40.70;23.02;;;3.20;99.90;;;;;;4955864;28;20039;-86
2021/03/12 00:32:03;;;;;;;37.47;22.15;;;3.10;99.90;;;;;;4961969;28;20036;-84
2021/03/12 00:34:28;;;;;;;38.28;21.98;;;2.70;99.90;;;;;;4967199;28;20034;-82
2021/03/12 00:36:54;;;;;;;38.40;22.38;;;2.80;99.90;;;;;;4955967;28;20045;-85
2021/03/12 00:39:20;;;;;;;42.33;23.25;;;3.00;99.90;;;;;;4974530;28;20058;-82
2021/03/12 00:41:46;;;;;;;34.20;22.55;;;3.00;99.90;;;;;;4956961;28;20041;-86
2021/03/12 00:44:11;;;;;;;36.47;20.77;;;3.10;99.90;;;;;;4972899;28;20408;-84
2021/03/12 00:46:37;;;;;;;35.47;22.02;;;3.00;99.90;;;;;;4955933;28;20022;-85
2021/03/12 00:49:03;;;;;;;37.38;22.35;;;3.10;99.90;;;;;;4973492;28;20031;-81
2021/03/12 00:51:29;;;;;;;37.95;21.85;;;3.30;99.90;;;;;;4955837;28;20027;-81
2021/03/12 00:57:17;;;;;;;35.80;20.92;;;3.30;99.90;;;;;;4972971;28;20034;-83
2021/03/12 00:59:43;;;;;;;37.67;20.60;;;3.30;99.90;;;;;;4955391;28;20054;-76
2021/03/12 01:02:09;;;;;;;38.72;22.42;;;3.40;99.90;;;;;;4971869;28;20026;-81
2021/03/12 01:04:34;;;;;;;34.08;21.55;;;3.30;99.90;;;;;;4972536;28;20473;-79
2021/03/12 01:07:00;;;;;;;36.33;21.35;;;3.40;99.90;;;;;;4940122;28;20030;-79
2021/03/12 01:09:26;;;;;;;32.92;20.80;;;3.40;99.90;;;;;;4973102;28;20034;-82
2021/03/12 01:11:52;;;;;;;39.22;21.40;;;3.40;99.90;;;;;;4955990;28;20776;-85
2021/03/12 01:14:17;;;;;;;31.42;20.45;;;3.20;99.90;;;;;;4957299;28;20034;-86
2021/03/12 01:16:43;;;;;;;36.67;21.45;;;3.40;99.90;;;;;;4977260;28;20077;-80
2021/03/12 01:19:09;;;;;;;35.83;20.73;;;3.40;99.90;;;;;;4976767;28;20708;-83
2021/03/12 01:21:35;;;;;;;30.88;20.25;;;3.30;99.90;;;;;;4976792;28;20385;-82
2021/03/12 01:24:01;;;;;;;30.73;20.85;;;3.40;99.90;;;;;;4976491;28;20023;-83
2021/03/12 01:26:27;;;;;;;36.67;21.17;;;3.40;99.90;;;;;;4976286;28;20113;-84
2021/03/12 01:28:54;;;;;;;33.50;20.33;;;3.40;99.90;;;;;;4977024;28;20034;-83
2021/03/12 01:31:19;;;;;;;27.38;20.30;;;3.40;99.90;;;;;;4976489;28;20498;-82
2021/03/12 01:33:45;;;;;;;30.55;20.52;;;3.20;99.90;;;;;;4970338;28;20474;-83
2021/03/12 01:39:33;;;;;;;30.85;20.48;;;3.20;99.90;;;;;;4958701;29;20142;-80
2021/03/12 01:41:59;;;;;;;29.85;19.20;;;3.30;99.90;;;;;;4957412;29;20452;-84
2021/03/12 01:44:25;;;;;;;33.97;20.13;;;3.20;99.90;;;;;;4958086;29;20412;-85
2021/03/12 01:46:51;;;;;;;31.90;18.85;;;3.00;99.90;;;;;;4958308;28;20019;-81
2021/03/12 01:49:17;;;;;;;32.50;19.38;;;2.90;99.90;;;;;;4941022;29;20027;-85
2021/03/12 01:51:43;;;;;;;32.40;19.17;;;2.90;99.90;;;;;;4958486;29;20031;-84
2021/03/12 01:54:08;;;;;;;30.50;18.70;;;2.90;99.90;;;;;;4957986;29;20027;-81
2021/03/12 01:56:34;;;;;;;29.25;18.67;;;2.70;99.90;;;;;;4957619;29;20505;-81
2021/03/12 01:59:00;;;;;;;30.40;19.52;;;3.00;99.90;;;;;;4957656;29;20679;-76
2021/03/12 02:01:25;;;;;;;27.70;19.67;;;2.70;99.90;;;;;;4956638;28;20370;-82
2021/03/12 02:03:51;;;;;;;32.90;19.42;;;2.20;99.90;;;;;;4957286;28;20024;-82
2021/03/12 02:06:17;;;;;;;28.88;17.40;;;2.60;99.90;;;;;;4938633;29;20106;-78
2021/03/12 02:08:43;;;;;;;28.25;18.95;;;2.50;99.90;;;;;;4956154;28;20038;-78
2021/03/12 02:11:08;;;;;;;30.15;18.95;;;2.80;99.90;;;;;;4955259;29;20525;-76
2021/03/12 02:13:47;;;;;;;29.35;18.77;;;2.50;99.90;;;;;;4955817;29;20042;-79
2021/03/12 02:16:13;;;;;;;29.13;18.73;;;2.60;99.90;;;;;;4955506;28;20031;-77
2021/03/12 02:18:45;;;;;;;29.38;19.52;;;2.90;99.90;;;;;;4956144;29;20031;-80
2021/03/12 02:21:40;;;;;;;24.65;18.27;;;3.10;99.90;;;;;;4960014;28;20039;-77
2021/03/12 02:24:33;;;;;;;36.00;20.80;;;3.20;99.90;;;;;;4954386;28;20046;-80
2021/03/12 02:27:05;;;;;;;34.17;19.50;;;2.90;99.90;;;;;;4920878;29;20075;-75
2021/03/12 02:29:34;;;;;;;31.95;19.17;;;2.90;99.90;;;;;;4955402;29;20136;-76
2021/03/12 02:32:02;;;;;;;33.63;19.45;;;3.00;99.90;;;;;;4954771;28;20028;-76
2021/03/12 02:34:36;;;;;;;34.95;19.67;;;3.10;99.90;;;;;;4966043;28;20030;-75
2021/03/12 02:37:04;;;;;;;33.08;20.52;;;3.20;99.90;;;;;;4955698;28;20070;-77
2021/03/12 02:39:32;;;;;;;32.28;20.60;;;3.20;99.90;;;;;;4957449;28;20038;-82
2021/03/12 02:42:00;;;;;;;31.98;21.52;;;2.80;99.90;;;;;;4968480;28;20089;-80
2021/03/12 02:44:28;;;;;;;35.42;23.10;;;2.50;99.90;;;;;;4970121;28;20039;-80
2021/03/12 02:46:59;;;;;;;37.05;20.95;;;2.50;99.90;;;;;;4970066;28;20409;-78
2021/03/12 02:49:29;;;;;;;35.85;21.00;;;2.70;99.90;;;;;;4956227;28;20035;-79
2021/03/12 02:51:56;;;;;;;31.15;20.80;;;2.80;99.90;;;;;;4956285;29;20111;-81
2021/03/12 02:54:23;;;;;;;31.88;20.75;;;2.90;99.90;;;;;;4956139;29;20038;-81
2021/03/12 02:56:50;;;;;;;34.92;21.02;;;3.10;99.90;;;;;;4955359;29;20031;-79
2021/03/12 02:59:18;;;;;;;35.75;20.42;;;3.00;99.90;;;;;;4955107;28;20027;-77
2021/03/12 03:01:48;;;;;;;33.47;20.95;;;3.00;99.90;;;;;;4952820;28;20047;-78
2021/03/12 03:04:15;;;;;;;;;;;3.10;99.90;;;;;;4957320;28;20052;-76
2021/03/12 03:06:41;;;;;;;34.65;19.90;;;2.90;99.90;;;;;;4955853;28;20260;-77
2021/03/12 03:09:07;;;;;;;33.22;20.13;;;2.90;99.90;;;;;;4955139;28;20381;-76
2021/03/12 03:11:36;;;;;;;31.88;20.77;;;2.90;99.90;;;;;;4955113;29;20027;-77
2021/03/12 03:14:02;;;;;;;36.70;22.60;;;3.00;99.90;;;;;;4955547;29;20548;-78
2021/03/12 03:19:51;;;;;;;32.88;21.45;;;3.00;99.90;;;;;;4953446;28;20747;-79
2021/03/12 03:22:18;;;;;;;37.72;23.02;;;3.00;99.90;;;;;;4955001;29;20091;-80
2021/03/12 03:24:44;;;;;;;35.78;21.23;;;2.80;99.90;;;;;;4955446;29;20035;-77
2021/03/12 03:27:11;;;;;;;36.53;21.80;;;2.80;99.90;;;;;;4954402;29;20031;-77
2021/03/12 03:29:37;;;;;;;36.80;21.50;;;2.80;99.90;;;;;;4955609;29;20135;-79
2021/03/12 03:32:03;;;;;;;36.20;21.65;;;2.80;99.90;;;;;;4955041;29;20390;-78
2021/03/12 03:34:29;;;;;;;36.45;21.90;;;2.90;99.90;;;;;;4954881;28;20433;-81
2021/03/12 03:36:55;;;;;;;33.90;21.63;;;2.90;99.90;;;;;;4954671;28;20547;-79
2021/03/12 03:39:21;;;;;;;32.72;20.65;;;2.80;99.90;;;;;;4955041;29;20147;-79
2021/03/12 03:41:52;;;;;;;36.40;21.27;;;2.80;99.90;;;;;;4954412;29;20078;-75
2021/03/12 03:44:20;;;;;;;;;;;3.00;99.90;;;;;;4956214;29;20050;-79
2021/03/12 03:46:48;;;;;;;31.52;19.40;;;3.00;99.90;;;;;;4955055;29;19921;-79
2021/03/12 03:49:17;;;;;;;29.95;20.40;;;2.90;99.90;;;;;;4954846;28;20759;-84
2021/03/12 03:51:44;;;;;;;30.35;19.27;;;2.80;99.90;;;;;;4955265;29;20433;-83
2021/03/12 03:54:15;;;;;;;33.92;20.60;;;2.50;99.90;;;;;;4954172;29;20027;-85
2021/03/12 03:56:43;;;;;;;30.40;20.48;;;2.40;99.90;;;;;;4954429;29;20024;-76
2021/03/12 03:59:10;;;;;;;32.53;19.50;;;2.40;99.90;;;;;;4954351;29;20027;-80
2021/03/12 04:01:38;;;;;;;29.02;17.90;;;2.30;99.90;;;;;;4954887;29;20425;-81
2021/03/12 04:04:06;;;;;;;26.98;18.05;;;2.50;99.90;;;;;;4953922;28;20030;-82
2021/03/12 04:06:33;;;;;;;26.75;18.02;;;2.10;99.90;;;;;;4955153;29;20038;-80
2021/03/12 04:09:01;;;;;;;30.02;20.30;;;2.10;99.90;;;;;;4954394;28;20023;-80
2021/03/12 04:11:28;;;;;;;28.25;18.90;;;2.50;99.90;;;;;;4954606;29;20544;-81
2021/03/12 04:13:56;;;;;;;31.05;18.75;;;2.50;99.90;;;;;;4954035;29;20209;-79
2021/03/12 04:16:22;;;;;;;29.45;18.83;;;2.60;99.90;;;;;;4954492;29;20042;-76
2021/03/12 04:18:49;;;;;;;27.77;18.58;;;2.60;99.90;;;;;;4953610;29;20106;-81
2021/03/12 04:21:16;;;;;;;30.58;17.30;;;2.20;99.90;;;;;;4954197;29;20070;-79
2021/03/12 04:23:43;;;;;;;25.48;16.25;;;2.20;99.90;;;;;;4953878;29;20023;-77
2021/03/12 04:26:10;;;;;;;27.38;17.02;;;2.20;99.90;;;;;;4953615;29;20027;-77
2021/03/12 04:28:37;;;;;;;25.13;16.63;;;2.40;99.90;;;;;;4954744;29;20050;-75
2021/03/12 04:31:04;;;;;;;26.95;17.48;;;2.60;99.90;;;;;;4954662;29;20397;-76
2021/03/12 04:33:30;;;;;;;26.10;16.35;;;2.60;99.90;;;;;;4954057;28;20031;-81
2021/03/12 04:35:56;;;;;;;23.02;16.35;;;2.70;99.90;;;;;;4959010;28;20455;-83
2021/03/12 04:38:23;;;;;;;24.38;17.00;;;2.70;99.90;;;;;;4937510;29;20111;-79
2021/03/12 04:40:50;;;;;;;25.88;16.98;;;2.80;99.90;;;;;;4954641;29;20122;-81
2021/03/12 04:43:16;;;;;;;26.10;16.70;;;2.80;99.90;;;;;;4955312;29;20019;-86
2021/03/12 04:45:43;;;;;;;28.30;17.67;;;2.70;99.90;;;;;;4954378;29;20051;-82
2021/03/12 04:48:11;;;;;;;29.40;17.98;;;2.70;99.90;;;;;;4953695;28;20059;-81
2021/03/12 04:50:37;;;;;;;26.45;17.42;;;2.80;99.90;;;;;;4958342;28;20023;-80
2021/03/12 04:53:04;;;;;;;25.73;17.30;;;2.80;99.90;;;;;;4958966;29;20027;-83
2021/03/12 04:55:31;;;;;;;27.55;16.92;;;2.80;99.90;;;;;;4958105;29;20477;-78
2021/03/12 04:57:57;;;;;;;25.98;17.27;;;2.80;99.90;;;;;;4957184;29;20019;-84
2021/03/12 05:00:23;;;;;;;26.20;17.08;;;2.80;99.90;;;;;;4941085;29;20043;-83
2021/03/12 05:02:50;;;;;;;25.58;16.20;;;2.80;99.90;;;;;;4957935;29;20027;-84
2021/03/12 05:05:16;;;;;;;26.88;17.45;;;2.70;99.90;;;;;;4958491;28;20031;-83
2021/03/12 05:07:43;;;;;;;27.15;16.13;;;2.70;99.90;;;;;;4941130;29;20023;-78
2021/03/12 05:10:10;;;;;;;29.60;16.10;;;2.60;99.90;;;;;;4957405;28;20421;-77
2021/03/12 05:12:38;;;;;;;25.58;17.48;;;2.70;99.90;;;;;;4940304;29;20366;-79
2021/03/12 05:15:05;;;;;;;23.33;16.02;;;2.70;99.90;;;;;;4957703;29;20031;-86
2021/03/12 05:17:31;;;;;;;24.83;17.02;;;2.80;99.90;;;;;;4958023;29;20027;-77
2021/03/12 05:19:57;;;;;;;27.55;16.80;;;2.80;99.90;;;;;;4957455;29;20051;-82
2021/03/12 05:22:23;;;;;;;30.95;18.35;;;2.80;99.90;;;;;;4940638;29;20026;-83
2021/03/12 05:24:48;;;;;;;26.83;18.35;;;2.70;99.90;;;;;;4956173;29;20035;-79
2021/03/12 05:27:14;;;;;;;33.17;18.58;;;2.50;99.90;;;;;;4956223;29;20046;-80
2021/03/12 05:29:40;;;;;;;30.52;19.40;;;2.50;99.90;;;;;;4957355;29;20034;-82
2021/03/12 05:32:06;;;;;;;29.55;18.75;;;2.50;99.90;;;;;;4958178;29;20106;-83
2021/03/12 05:34:32;;;;;;;28.02;18.40;;;2.60;99.90;;;;;;4942196;29;20473;-77
2021/03/12 05:36:58;;;;;;;31.58;19.08;;;2.70;99.90;;;;;;4958063;29;20035;-82
2021/03/12 05:39:23;;;;;;;26.75;17.95;;;2.90;99.90;;;;;;4957243;29;20122;-80
2021/03/12 05:41:50;;;;;;;32.05;18.00;;;3.00;99.90;;;;;;4957229;29;20397;-78
2021/03/12 05:44:17;;;;;;;28.05;18.20;;;3.10;99.90;;;;;;4956886;29;20488;-81
2021/03/12 05:46:43;;;;;;;28.98;17.65;;;3.10;99.90;;;;;;4957400;29;20036;-80
2021/03/12 05:49:09;;;;;;;30.35;18.23;;;3.10;99.90;;;;;;4956841;28;20039;-80
2021/03/12 05:51:36;;;;;;;31.15;19.05;;;3.30;99.90;;;;;;4957139;29;20465;-79
2021/03/12 05:54:03;;;;;;;30.45;18.90;;;3.30;99.90;;;;;;4957072;29;20385;-79
2021/03/12 05:56:29;;;;;;;32.40;19.88;;;3.40;99.90;;;;;;4956532;29;20035;-79
2021/03/12 05:58:57;;;;;;;35.00;19.40;;;3.40;99.90;;;;;;4956533;29;20399;-78
2021/03/12 06:01:23;;;;;;;37.08;20.52;;;3.20;99.90;;;;;;4956511;28;20051;-79
2021/03/12 06:03:48;;;;;;;29.27;18.85;;;2.80;99.90;;;;;;4939077;29;20034;-80
2021/03/12 06:06:14;;;;;;;28.73;19.52;;;2.80;99.90;;;;;;4956352;28;20038;-82
2021/03/12 06:08:40;;;;;;;33.30;19.02;;;2.50;99.90;;;;;;4939720;29;20023;-80
2021/03/12 06:11:05;;;;;;;25.80;18.95;;;2.70;99.90;;;;;;4955755;29;20035;-82
2021/03/12 06:13:52;;;;;;;30.52;19.70;;;2.90;99.90;;;;;;4939536;29;20396;-77
2021/03/12 06:16:30;;;;;;;32.83;19.13;;;2.90;99.90;;;;;;4956555;29;20039;-83
2021/03/12 06:19:13;;;;;;;67.28;36.38;;;3.10;99.90;;;;;;4955212;29;20031;-84
2021/03/12 06:21:48;;;;;;;142.50;73.20;;;3.70;99.90;;;;;;4957033;29;20034;-80
2021/03/12 06:24:31;;;;;;;72.32;41.20;;;3.90;99.90;;;;;;4954668;28;20045;-79
2021/03/12 06:26:58;;;;;;;37.67;22.17;;;4.30;99.90;;;;;;4975616;28;20019;-84
2021/03/12 06:29:38;;;;;;;35.25;21.60;;;4.00;99.90;;;;;;4957285;28;20991;-77
2021/03/12 06:32:05;;;;;;;70.15;40.20;;;3.80;99.90;;;;;;4966744;28;20090;-79
2021/03/12 06:34:32;;;;;;;91.07;49.17;;;3.90;99.90;;;;;;4970856;28;20023;-81
2021/03/12 06:36:59;;;;;;;81.55;47.63;;;4.30;99.90;;;;;;4955889;29;20020;-83
2021/03/12 06:39:36;;;;;;;150.50;74.32;;;4.30;99.90;;;;;;4953539;29;20035;-82
2021/03/12 06:42:09;;;;;;;53.70;30.67;;;4.30;99.90;;;;;;4955734;29;20027;-77
2021/03/12 06:44:37;;;;;;;35.75;23.85;;;4.30;99.90;;;;;;4955568;29;20115;-82
2021/03/12 06:47:04;;;;;;;38.35;22.95;;;4.40;99.90;;;;;;4955455;29;20042;-85
2021/03/12 06:49:30;;;;;;;43.20;25.15;;;4.40;99.90;;;;;;4955623;28;20019;-77
2021/03/12 06:51:58;;;;;;;41.20;23.58;;;4.40;99.90;;;;;;4955350;29;20147;-79
2021/03/12 06:54:28;;;;;;;42.88;23.67;;;4.50;99.90;;;;;;4953526;29;20032;-77
2021/03/12 06:56:55;;;;;;;42.80;23.40;;;4.60;99.90;;;;;;4955434;29;20130;-76
2021/03/12 06:59:31;;;;;;;37.50;23.15;;;4.60;99.90;;;;;;4955527;29;20035;-78
2021/03/12 07:01:57;;;;;;;36.58;23.23;;;4.70;99.90;;;;;;4954843;29;20097;-80
2021/03/12 07:04:29;;;;;;;35.50;23.15;;;4.70;99.90;;;;;;4955615;28;20385;-78
2021/03/12 07:06:56;;;;;;;83.38;45.70;;;4.60;99.90;;;;;;4955210;29;20038;-78
2021/03/12 07:09:25;;;;;;;63.03;37.70;;;5.00;99.90;;;;;;4954936;28;20436;-81
2021/03/12 07:11:59;;;;;;;40.50;26.38;;;5.60;99.90;;;;;;4953413;28;20503;-79
2021/03/12 07:14:26;;;;;;;40.42;24.33;;;5.20;99.90;;;;;;4957016;28;20061;-76
2021/03/12 07:16:52;;;;;;;40.90;24.83;;;5.20;99.90;;;;;;4962572;28;20035;-81
2021/03/12 07:19:21;;;;;;;46.78;26.00;;;5.30;99.90;;;;;;4957420;28;20396;-77
2021/03/12 07:21:51;;;;;;;43.97;24.60;;;5.40;99.90;;;;;;4974215;28;20476;-80
2021/03/12 07:24:21;;;;;;;42.88;24.33;;;5.60;99.90;;;;;;4975272;28;20073;-80
2021/03/12 07:26:55;;;;;;;31.13;21.05;;;5.40;99.90;;;;;;4974517;28;20027;-79
2021/03/12 07:29:23;;;;;;;35.28;21.90;;;4.80;99.90;;;;;;4975047;28;20041;-80
2021/03/12 07:31:55;;;;;;;35.60;20.40;;;5.00;99.90;;;;;;4973793;28;20038;-81
2021/03/12 07:34:26;;;;;;;35.22;20.63;;;5.40;99.90;;;;;;4971609;28;20019;-79
2021/03/12 07:36:55;;;;;;;36.97;21.35;;;5.20;99.90;;;;;;4954923;29;20113;-79
2021/03/12 07:39:42;;;;;;;35.80;20.20;;;5.50;99.90;;;;;;4937440;29;20027;-79
2021/03/12 07:42:15;;;;;;;31.65;19.40;;;5.70;99.90;;;;;;4954470;29;20023;-81
2021/03/12 07:44:44;;;;;;;30.80;20.77;;;5.90;99.90;;;;;;4954464;29;20043;-75
2021/03/12 07:47:10;;;;;;;34.28;22.00;;;6.10;99.90;;;;;;4953565;29;20032;-79
2021/03/12 07:49:36;;;;;;;37.50;22.70;;;5.80;99.90;;;;;;4953880;29;20086;-78
2021/03/12 07:52:04;;;;;;;38.45;24.17;;;6.10;99.90;;;;;;4953914;29;20027;-81
2021/03/12 07:54:45;;;;;;;35.97;22.52;;;6.30;99.90;;;;;;4953696;29;20363;-81
2021/03/12 07:57:31;;;;;;;37.40;22.77;;;6.20;99.90;;;;;;4953762;29;20023;-78
2021/03/12 07:59:57;;;;;;;38.03;24.77;;;6.00;99.90;;;;;;4954072;29;20032;-81
2021/03/12 08:02:23;;;;;;;41.28;24.05;;;6.10;99.90;;;;;;4953136;29;20035;-80
2021/03/12 08:04:49;;;;;;;39.40;24.83;;;6.30;99.90;;;;;;4953795;29;20020;-79
2021/03/12 08:07:18;;;;;;;29.80;19.50;;;6.30;99.90;;;;;;4936032;29;20038;-79
2021/03/12 08:09:45;;;;;;;25.92;17.95;;;6.20;99.90;;;;;;4953235;28;20056;-78
2021/03/12 08:12:40;;;;;;;30.77;18.15;;;6.30;99.90;;;;;;4953393;29;20106;-78
2021/03/12 08:15:19;;;;;;;33.35;18.27;;;6.40;99.90;;;;;;4953653;29;20046;-78
2021/03/12 08:18:08;;;;;;;25.80;16.63;;;6.50;99.90;;;;;;4952891;29;20023;-81
2021/03/12 08:20:43;;;;;;;21.25;14.40;;;6.70;98.00;;;;;;4921982;29;20043;-80
2021/03/12 08:23:14;;;;;;;20.67;13.38;;;6.50;98.30;;;;;;4952584;28;20023;-78
2021/03/12 08:25:40;;;;;;;21.55;13.50;;;6.80;97.20;;;;;;4953178;29;20055;-80
2021/03/12 08:28:05;;;;;;;19.08;13.80;;;7.20;96.30;;;;;;4953002;29;20491;-78
2021/03/12 08:30:34;;;;;;;18.50;11.13;;;7.30;95.70;;;;;;4936093;29;20031;-80
2021/03/12 08:33:07;;;;;;;17.33;10.70;;;7.20;94.90;;;;;;4952897;29;20027;-78
2021/03/12 08:35:39;;;;;;;17.20;11.23;;;7.20;94.10;;;;;;4963916;28;20027;-81
2021/03/12 08:38:10;;;;;;;17.50;10.68;;;7.20;93.80;;;;;;4970731;28;20027;-78
2021/03/12 08:40:42;;;;;;;14.07;10.38;;;7.20;94.90;;;;;;4972606;28;20034;-81
2021/03/12 08:43:11;;;;;;;15.73;11.23;;;7.40;94.40;;;;;;4970926;28;20118;-81
2021/03/12 08:45:44;;;;;;;15.95;10.85;;;7.70;93.30;;;;;;4972662;28;20202;-79
2021/03/12 08:48:17;;;;;;;15.77;10.82;;;7.90;92.50;;;;;;4970777;28;20460;-78
2021/03/12 08:50:55;;;;;;;18.20;11.82;;;8.00;92.00;;;;;;4971350;28;20027;-79
2021/03/12 08:53:25;;;;;;;15.02;10.80;;;8.00;92.50;;;;;;4972103;28;20388;-81
2021/03/12 08:55:53;;;;;;;18.38;10.07;;;8.00;91.60;;;;;;4971450;28;20027;-81
2021/03/12 08:58:23;;;;;;;15.73;10.52;;;8.40;91.10;;;;;;4972255;28;20035;-79
2021/03/12 09:00:54;;;;;;;13.93;10.82;;;8.90;89.60;;;;;;4972521;28;20125;-81
2021/03/12 09:03:24;;;;;;;16.02;11.98;;;8.90;87.10;;;;;;4972079;28;20023;-78
2021/03/12 09:05:52;;;;;;;17.15;11.25;;;8.70;89.10;;;;;;4972131;28;20052;-79
2021/03/12 09:08:23;;;;;;;14.80;11.13;;;8.60;86.60;;;;;;4971436;28;20365;-81
2021/03/12 09:10:50;;;;;;;15.00;10.07;;;8.50;86.10;;;;;;4972063;28;20034;-80
2021/03/12 09:13:20;;;;;;;15.05;9.75;;;8.40;84.70;;;;;;4971807;28;20034;-77
2021/03/12 09:15:46;;;;;;;14.98;10.00;;;8.30;85.80;;;;;;4970701;28;20484;-76
2021/03/12 09:18:14;;;;;;;14.48;9.63;;;8.50;85.60;;;;;;4971895;28;20038;-77
2021/03/12 09:20:42;;;;;;;14.98;10.88;;;8.70;82.60;;;;;;4971869;28;20031;-77
2021/03/12 09:23:08;;;;;;;17.70;11.63;;;8.60;82.70;;;;;;4971634;28;20377;-77
2021/03/12 09:25:34;;;;;;;16.30;11.45;;;8.50;83.70;;;;;;4972259;28;20082;-79
2021/03/12 09:28:07;;;;;;;16.98;12.00;;;8.30;87.70;;;;;;4971492;28;20109;-76
2021/03/12 09:30:44;;;;;;;19.33;12.65;;;8.90;86.90;;;;;;4972110;28;20035;-78
2021/03/12 09:33:36;;;;;;;25.95;15.18;;;9.10;84.20;;;;;;4972179;28;20026;-79
2021/03/12 09:36:05;;;;;;;21.75;13.30;;;8.90;84.70;;;;;;4961076;28;20027;-81
2021/03/12 09:38:41;;;;;;;17.83;13.60;;;8.90;87.30;;;;;;4955963;29;20059;-79
2021/03/12 09:41:15;;;;;;;17.70;12.68;;;9.50;83.60;;;;;;4956086;29;20066;-80
2021/03/12 09:43:43;;;;;;;14.90;11.70;;;10.00;80.10;;;;;;4955557;29;20106;-80
2021/03/12 09:46:09;;;;;;;17.75;11.80;;;10.00;76.60;;;;;;4954612;29;20048;-79
2021/03/12 09:48:34;;;;;;;19.63;12.82;;;10.20;75.80;;;;;;4938602;29;20050;-79
2021/03/12 09:51:01;;;;;;;22.73;12.75;;;10.70;73.20;;;;;;4955746;29;20093;-77
2021/03/12 09:53:26;;;;;;;17.30;12.25;;;11.00;72.00;;;;;;4955084;29;20027;-78
2021/03/12 09:55:53;;;;;;;21.38;14.95;;;11.10;71.20;;;;;;4956099;29;20035;-77
2021/03/12 09:58:19;;;;;;;20.50;13.45;;;12.10;78.70;;;;;;4955614;28;20060;-79
2021/03/12 10:00:45;;;;;;;18.00;12.35;;;11.80;69.50;;;;;;4964072;28;20090;-78
2021/03/12 10:03:11;;;;;;;19.23;12.73;;;11.40;69.00;;;;;;4946845;28;20027;-78
2021/03/12 10:05:37;;;;;;;20.33;12.20;;;11.40;69.10;;;;;;4963245;28;20102;-79
2021/03/12 10:08:04;;;;;;;17.73;12.13;;;11.50;67.90;;;;;;4964841;28;20030;-80
2021/03/12 10:10:35;;;;;;;18.80;11.85;;;11.90;66.90;;;;;;4963984;28;20027;-77
2021/03/12 10:13:04;;;;;;;16.25;11.05;;;11.70;65.70;;;;;;4963615;28;20104;-77
2021/03/12 10:15:41;;;;;;;15.60;10.10;;;11.60;66.00;;;;;;4963584;28;20452;-77
2021/03/12 10:18:17;;;;;;;14.80;10.52;;;11.80;63.30;;;;;;4964032;28;20027;-78
2021/03/12 10:20:43;;;;;;;15.02;10.27;;;12.00;63.50;;;;;;4963690;28;20045;-79
2021/03/12 10:23:11;;;;;;;14.98;10.07;;;12.50;63.30;;;;;;4962240;28;20023;-78
2021/03/12 10:25:47;;;;;;;16.70;10.32;;;12.20;61.60;;;;;;4965832;28;20358;-78
2021/03/12 10:28:16;;;;;;;13.35;9.10;;;11.70;61.60;;;;;;4972993;28;20043;-77
2021/03/12 10:30:50;;;;;;;12.10;8.95;;;11.30;61.80;;;;;;4974288;28;20102;-79
2021/03/12 10:33:22;;;;;;;12.20;9.55;;;11.60;61.60;;;;;;4974220;28;20026;-78
2021/03/12 10:35:50;;;;;;;14.88;10.63;;;11.50;61.60;;;;;;4965465;28;20027;-76
2021/03/12 10:38:23;;;;;;;15.32;10.82;;;12.00;61.30;;;;;;4954993;28;20023;-77
2021/03/12 10:40:55;;;;;;;15.50;11.35;;;12.10;60.00;;;;;;4957550;28;20090;-77
2021/03/12 10:43:29;;;;;;;17.05;12.80;;;12.40;60.60;;;;;;4966544;28;20033;-76
2021/03/12 10:46:07;;;;;;;17.08;11.10;;;12.60;59.90;;;;;;4963055;28;20604;-77
2021/03/12 10:48:47;;;;;;;15.95;10.40;;;12.70;60.10;;;;;;4958829;28;20676;-77
2021/03/12 10:51:15;;;;;;;15.23;10.10;;;12.90;58.70;;;;;;4961171;28;20433;-79
2021/03/12 10:53:55;;;;;;;14.60;9.38;;;13.10;58.30;;;;;;4941744;28;20144;-77
2021/03/12 10:56:23;;;;;;;12.77;8.52;;;12.70;57.40;;;;;;4963372;28;20380;-79
2021/03/12 10:58:50;;;;;;;12.18;8.90;;;13.00;58.30;;;;;;4960853;28;20047;-80
2021/03/12 11:01:26;;;;;;;14.65;10.10;;;13.50;56.60;;;;;;4960971;28;20397;-77
2021/03/12 11:03:54;;;;;;;13.80;9.27;;;14.10;60.00;;;;;;4961344;28;20482;-76
2021/03/12 11:06:22;;;;;;;12.00;8.63;;;14.90;56.50;;;;;;4957984;28;20035;-79
2021/03/12 11:08:48;;;;;;;13.43;9.15;;;15.00;53.50;;;;;;4954127;28;20070;-78
2021/03/12 11:11:18;;;;;;;17.20;9.77;;;15.80;56.90;;;;;;4954553;29;20119;-79
2021/03/12 11:13:44;;;;;;;13.77;9.33;;;16.50;55.10;;;;;;4936997;29;20490;-75
2021/03/12 11:16:10;;;;;;;14.75;8.82;;;16.30;51.80;;;;;;4954588;29;20035;-77
2021/03/12 11:18:36;;;;;;;15.10;10.32;;;15.90;51.30;;;;;;4936768;29;20034;-78
2021/03/12 11:21:08;;;;;;;15.30;10.00;;;15.70;51.60;;;;;;4954185;29;20039;-79
2021/03/12 11:23:34;;;;;;;17.52;9.85;;;15.60;52.60;;;;;;4953356;29;20031;-78
2021/03/12 11:26:00;;;;;;;15.05;10.40;;;15.80;53.90;;;;;;4953954;29;20029;-78
2021/03/12 11:28:27;;;;;;;14.43;10.55;;;16.10;52.10;;;;;;4954037;29;20027;-78
2021/03/12 11:30:54;;;;;;;14.60;9.18;;;16.30;52.10;;;;;;4956873;28;20106;-80
2021/03/12 11:33:21;;;;;;;14.38;9.60;;;16.60;53.10;;;;;;4970539;28;20090;-77
2021/03/12 11:35:46;;;;;;;47.92;11.75;;;16.60;51.80;;;;;;4963057;28;20027;-79
2021/03/12 11:38:12;;;;;;;13.60;10.13;;;16.60;52.80;;;;;;4935152;29;20028;-78
2021/03/12 11:40:39;;;;;;;14.27;9.40;;;16.30;49.30;;;;;;4952281;29;20500;-77
2021/03/12 11:43:06;;;;;;;13.10;9.00;;;16.30;49.70;;;;;;4952893;29;20059;-77
2021/03/12 11:45:32;;;;;;;14.18;9.48;;;17.00;51.50;;;;;;4953347;29;20122;-79
2021/03/12 11:47:58;;;;;;;14.63;9.70;;;17.60;50.20;;;;;;4954436;29;20031;-78
2021/03/12 11:50:26;;;;;;;13.70;9.05;;;16.50;48.00;;;;;;4953700;29;20030;-78
2021/03/12 11:52:53;;;;;;;13.80;9.05;;;16.90;49.30;;;;;;4953975;29;20776;-81
2021/03/12 11:55:19;;;;;;;12.52;8.88;;;17.40;49.00;;;;;;4959170;28;20026;-77
2021/03/12 11:57:45;;;;;;;15.55;9.98;;;17.70;47.90;;;;;;4966370;28;20023;-79
2021/03/12 12:00:13;;;;;;;14.52;9.25;;;17.60;48.20;;;;;;4972039;28;20034;-76
2021/03/12 12:02:39;;;;;;;15.40;9.40;;;17.50;48.10;;;;;;4959693;28;20444;-79
2021/03/12 12:05:08;;;;;;;15.82;10.20;;;17.80;48.20;;;;;;4960051;28;20074;-79
2021/03/12 12:07:34;;;;;;;13.18;9.25;;;18.40;48.60;;;;;;4962359;28;20035;-78
2021/03/12 12:10:00;;;;;;;15.07;9.43;;;17.90;45.90;;;;;;4962474;28;20058;-77
2021/03/12 12:12:27;;;;;;;13.55;9.60;;;16.50;45.50;;;;;;4948662;28;20037;-77
2021/03/12 12:14:52;;;;;;;13.35;9.50;;;16.90;47.80;;;;;;4961959;28;20052;-79
2021/03/12 12:17:18;;;;;;;14.80;10.00;;;17.10;48.20;;;;;;4961369;28;20051;-80
2021/03/12 12:19:46;;;;;;;10.93;8.23;;;16.90;48.50;;;;;;4962421;28;20472;-77
2021/03/12 12:22:47;;;;;;;11.02;7.10;;;16.80;47.70;;;;;;4959126;28;20026;-76
2021/03/12 12:25:14;;;;;;;11.38;7.80;;;16.40;48.00;;;;;;4960650;28;20030;-78
2021/03/12 12:27:40;;;;;;;9.82;7.05;;;17.00;48.50;;;;;;4961242;28;20019;-79
2021/03/12 12:30:07;;;;;;;10.00;6.43;;;17.40;47.10;;;;;;4960439;28;20027;-77
2021/03/12 12:32:36;;;;;;;9.73;6.43;;;17.60;47.60;;;;;;4963233;28;20114;-78
2021/03/12 12:35:03;;;;;;;10.05;6.15;;;17.50;47.40;;;;;;4959190;28;20786;-77
2021/03/12 12:37:29;;;;;;;10.77;5.75;;;17.90;46.90;;;;;;4943642;28;20034;-78
2021/03/12 12:39:55;;;;;;;8.55;5.93;;;18.50;46.80;;;;;;4962352;28;20028;-78
2021/03/12 12:42:21;;;;;;;7.53;5.35;;;18.80;44.70;;;;;;4962046;28;20090;-76
2021/03/12 12:44:47;;;;;;;8.68;4.88;;;17.30;45.30;;;;;;4961400;28;20402;-77
2021/03/12 12:47:13;;;;;;;8.77;5.32;;;17.70;45.50;;;;;;4960730;28;20039;-79
2021/03/12 12:49:39;;;;;;;9.88;5.20;;;17.40;46.20;;;;;;4962579;28;20027;-77
2021/03/12 12:52:04;;;;;;;8.88;6.28;;;18.00;45.40;;;;;;4961580;28;20098;-76